sensor_id;sensor_type;location;lat;lon;timestamp;pressure;altitude;pressure_sealevel;temperature;humidity
7966;BME280;4028;43.272;26.932;2022-09-02T00:01:46;98956.28;;;23.01;100.00
7966;BME280;4028;43.272;26.932;2022-09-02T00:04:15;98945.63;;;23.06;100.00
7966;BME280;4028;43.272;26.932;2022-09-02T00:06:42;98932.47;;;22.98;100.00
7966;BME280;4028;43.272;26.932;2022-09-02T00:09:09;98933.16;;;22.94;100.00
7966;BME280;4028;43.272;26.932;2022-09-02T00:11:37;98925.75;;;22.89;100.00
7966;BME280;4028;43.272;26.932;2022-09-02T00:14:06;98940.91;;;23.02;100.00
7966;BME280;4028;43.272;26.932;2022-09-02T00:16:32;98943.03;;;23.00;100.00
7966;BME280;4028;43.272;26.932;2022-09-02T00:18:59;98946.31;;;23.02;100.00
7966;BME280;4028;43.272;26.932;2022-09-02T00:21:27;98946.41;;;22.95;100.00
7966;BME280;4028;43.272;26.932;2022-09-02T00:23:53;98938.69;;;22.99;100.00
7966;BME280;4028;43.272;26.932;2022-09-02T00:26:19;98943.13;;;22.93;100.00
7966;BME280;4028;43.272;26.932;2022-09-02T00:28:45;98944.91;;;22.99;100.00
7966;BME280;4028;43.272;26.932;2022-09-02T00:31:12;98947.47;;;22.94;100.00
7966;BME280;4028;43.272;26.932;2022-09-02T00:33:38;98947.09;;;22.91;100.00
7966;BME280;4028;43.272;26.932;2022-09-02T00:36:05;98940.47;;;22.87;100.00
7966;BME280;4028;43.272;26.932;2022-09-02T00:38:31;98950.44;;;22.86;100.00
7966;BME280;4028;43.272;26.932;2022-09-02T00:40:59;98945.28;;;22.84;100.00
7966;BME280;4028;43.272;26.932;2022-09-02T00:43:38;98950.19;;;22.88;100.00
7966;BME280;4028;43.272;26.932;2022-09-02T00:46:05;98947.66;;;22.93;100.00
7966;BME280;4028;43.272;26.932;2022-09-02T00:48:31;98943.41;;;22.85;100.00
7966;BME280;4028;43.272;26.932;2022-09-02T00:50:57;98947.22;;;22.77;100.00
7966;BME280;4028;43.272;26.932;2022-09-02T00:53:22;98947.97;;;22.84;100.00
7966;BME280;4028;43.272;26.932;2022-09-02T00:55:50;98941.97;;;22.82;100.00
7966;BME280;4028;43.272;26.932;2022-09-02T00:58:22;98939.66;;;22.86;100.00
7966;BME280;4028;43.272;26.932;2022-09-02T01:00:51;98947.00;;;22.79;100.00
7966;BME280;4028;43.272;26.932;2022-09-02T01:03:22;98948.28;;;22.76;100.00
7966;BME280;4028;43.272;26.932;2022-09-02T01:05:49;98961.19;;;22.74;100.00
7966;BME280;4028;43.272;26.932;2022-09-02T01:08:22;98956.84;;;22.73;100.00
7966;BME280;4028;43.272;26.932;2022-09-02T01:10:50;98955.78;;;22.74;100.00
7966;BME280;4028;43.272;26.932;2022-09-02T01:13:19;98951.06;;;22.70;100.00
7966;BME280;4028;43.272;26.932;2022-09-02T01:15:48;98949.56;;;22.74;100.00
7966;BME280;4028;43.272;26.932;2022-09-02T01:18:18;98942.16;;;22.69;100.00
7966;BME280;4028;43.272;26.932;2022-09-02T01:20:45;98942.75;;;22.71;100.00
7966;BME280;4028;43.272;26.932;2022-09-02T01:23:13;98946.63;;;22.75;100.00
7966;BME280;4028;43.272;26.932;2022-09-02T01:25:40;98947.69;;;22.74;100.00
7966;BME280;4028;43.272;26.932;2022-09-02T01:28:11;98950.63;;;22.73;100.00
7966;BME280;4028;43.272;26.932;2022-09-02T01:30:45;98923.00;;;22.59;100.00
7966;BME280;4028;43.272;26.932;2022-09-02T01:33:11;98942.97;;;22.70;100.00
7966;BME280;4028;43.272;26.932;2022-09-02T01:35:37;98945.16;;;22.61;100.00
7966;BME280;4028;43.272;26.932;2022-09-02T01:38:03;98942.44;;;22.61;100.00
7966;BME280;4028;43.272;26.932;2022-09-02T01:40:29;98932.66;;;22.48;100.00
7966;BME280;4028;43.272;26.932;2022-09-02T01:42:58;98939.94;;;22.48;100.00
7966;BME280;4028;43.272;26.932;2022-09-02T01:45:24;98939.94;;;22.48;100.00
7966;BME280;4028;43.272;26.932;2022-09-02T01:47:50;98938.28;;;22.47;100.00
7966;BME280;4028;43.272;26.932;2022-09-02T01:50:16;98929.22;;;22.41;100.00
7966;BME280;4028;43.272;26.932;2022-09-02T01:52:42;98936.47;;;22.41;100.00
7966;BME280;4028;43.272;26.932;2022-09-02T01:55:08;98938.75;;;22.44;100.00
7966;BME280;4028;43.272;26.932;2022-09-02T01:57:34;98945.19;;;22.43;100.00
7966;BME280;4028;43.272;26.932;2022-09-02T01:59:59;98938.13;;;22.42;100.00
7966;BME280;4028;43.272;26.932;2022-09-02T02:02:26;98946.16;;;22.30;100.00
7966;BME280;4028;43.272;26.932;2022-09-02T02:04:52;98940.53;;;22.31;100.00
7966;BME280;4028;43.272;26.932;2022-09-02T02:07:19;98936.13;;;22.37;100.00
7966;BME280;4028;43.272;26.932;2022-09-02T02:09:45;98928.72;;;22.33;100.00
7966;BME280;4028;43.272;26.932;2022-09-02T02:12:10;98921.06;;;22.29;100.00
7966;BME280;4028;43.272;26.932;2022-09-02T02:14:37;98932.59;;;22.37;100.00
7966;BME280;4028;43.272;26.932;2022-09-02T02:17:03;98936.19;;;22.30;100.00
7966;BME280;4028;43.272;26.932;2022-09-02T02:19:28;98933.56;;;22.24;100.00
7966;BME280;4028;43.272;26.932;2022-09-02T02:21:54;98931.56;;;22.38;100.00
7966;BME280;4028;43.272;26.932;2022-09-02T02:24:20;98915.84;;;22.16;100.00
7966;BME280;4028;43.272;26.932;2022-09-02T02:26:46;98934.69;;;22.35;100.00
7966;BME280;4028;43.272;26.932;2022-09-02T02:29:13;98930.06;;;22.23;100.00
7966;BME280;4028;43.272;26.932;2022-09-02T02:31:39;98927.78;;;22.20;100.00
7966;BME280;4028;43.272;26.932;2022-09-02T02:34:05;98915.47;;;22.13;100.00
7966;BME280;4028;43.272;26.932;2022-09-02T02:36:30;98928.31;;;22.11;100.00
7966;BME280;4028;43.272;26.932;2022-09-02T02:38:56;98941.97;;;22.09;100.00
7966;BME280;4028;43.272;26.932;2022-09-02T02:41:22;98937.88;;;22.06;100.00
7966;BME280;4028;43.272;26.932;2022-09-02T02:43:48;98940.13;;;22.10;100.00
7966;BME280;4028;43.272;26.932;2022-09-02T02:46:13;98930.34;;;22.15;100.00
7966;BME280;4028;43.272;26.932;2022-09-02T02:48:40;98904.78;;;21.99;100.00
7966;BME280;4028;43.272;26.932;2022-09-02T02:51:07;98935.13;;;22.13;100.00
7966;BME280;4028;43.272;26.932;2022-09-02T02:53:33;98924.84;;;22.03;100.00
7966;BME280;4028;43.272;26.932;2022-09-02T02:56:00;98923.13;;;22.09;100.00
7966;BME280;4028;43.272;26.932;2022-09-02T02:58:26;98921.34;;;22.03;100.00
7966;BME280;4028;43.272;26.932;2022-09-02T03:00:52;98918.25;;;21.99;100.00
7966;BME280;4028;43.272;26.932;2022-09-02T03:03:18;98927.78;;;22.02;100.00
7966;BME280;4028;43.272;26.932;2022-09-02T03:05:47;98936.06;;;22.00;100.00
7966;BME280;4028;43.272;26.932;2022-09-02T03:08:14;98935.84;;;22.02;100.00
7966;BME280;4028;43.272;26.932;2022-09-02T03:10:41;98937.09;;;21.99;100.00
7966;BME280;4028;43.272;26.932;2022-09-02T03:13:07;98942.72;;;21.98;100.00
7966;BME280;4028;43.272;26.932;2022-09-02T03:15:35;98874.97;;;21.58;100.00
7966;BME280;4028;43.272;26.932;2022-09-02T03:18:01;98943.00;;;21.90;100.00
7966;BME280;4028;43.272;26.932;2022-09-02T03:20:27;98943.47;;;21.87;100.00
7966;BME280;4028;43.272;26.932;2022-09-02T03:22:55;98950.72;;;21.86;100.00
7966;BME280;4028;43.272;26.932;2022-09-02T03:25:22;98951.53;;;21.87;100.00
7966;BME280;4028;43.272;26.932;2022-09-02T03:27:48;98928.06;;;21.69;100.00
7966;BME280;4028;43.272;26.932;2022-09-02T03:30:18;98947.25;;;21.79;100.00
7966;BME280;4028;43.272;26.932;2022-09-02T03:32:44;98949.13;;;21.78;100.00
7966;BME280;4028;43.272;26.932;2022-09-02T03:35:12;98944.63;;;21.72;100.00
7966;BME280;4028;43.272;26.932;2022-09-02T03:37:39;98954.56;;;21.72;100.00
7966;BME280;4028;43.272;26.932;2022-09-02T03:40:07;98958.91;;;21.73;100.00
7966;BME280;4028;43.272;26.932;2022-09-02T03:42:33;98931.09;;;21.54;100.00
7966;BME280;4028;43.272;26.932;2022-09-02T03:44:59;98957.25;;;21.72;100.00
7966;BME280;4028;43.272;26.932;2022-09-02T03:47:24;98948.38;;;21.71;100.00
7966;BME280;4028;43.272;26.932;2022-09-02T03:49:53;98957.50;;;21.70;100.00
7966;BME280;4028;43.272;26.932;2022-09-02T03:52:19;98962.50;;;21.67;100.00
7966;BME280;4028;43.272;26.932;2022-09-02T03:54:44;98960.78;;;21.72;100.00
7966;BME280;4028;43.272;26.932;2022-09-02T03:57:10;98948.47;;;21.58;100.00
7966;BME280;4028;43.272;26.932;2022-09-02T03:59:35;98970.97;;;21.70;100.00
7966;BME280;4028;43.272;26.932;2022-09-02T04:02:01;98972.59;;;21.71;100.00
7966;BME280;4028;43.272;26.932;2022-09-02T04:04:27;98969.59;;;21.79;100.00
7966;BME280;4028;43.272;26.932;2022-09-02T04:06:53;98963.19;;;21.80;100.00
7966;BME280;4028;43.272;26.932;2022-09-02T04:09:18;98965.00;;;21.87;100.00
7966;BME280;4028;43.272;26.932;2022-09-02T04:11:44;98975.88;;;21.98;100.00
7966;BME280;4028;43.272;26.932;2022-09-02T04:14:10;98980.59;;;22.03;100.00
7966;BME280;4028;43.272;26.932;2022-09-02T04:16:35;98972.09;;;22.06;100.00
7966;BME280;4028;43.272;26.932;2022-09-02T04:19:01;98975.38;;;22.08;100.00
7966;BME280;4028;43.272;26.932;2022-09-02T04:21:31;98976.19;;;22.09;100.00
7966;BME280;4028;43.272;26.932;2022-09-02T04:23:57;98976.63;;;22.12;100.00
7966;BME280;4028;43.272;26.932;2022-09-02T04:26:23;98974.38;;;22.02;100.00
7966;BME280;4028;43.272;26.932;2022-09-02T04:28:49;98977.09;;;22.02;100.00
7966;BME280;4028;43.272;26.932;2022-09-02T04:31:17;98981.81;;;22.07;100.00
7966;BME280;4028;43.272;26.932;2022-09-02T04:33:44;98983.88;;;22.12;100.00
7966;BME280;4028;43.272;26.932;2022-09-02T04:36:12;98981.34;;;22.10;100.00
7966;BME280;4028;43.272;26.932;2022-09-02T04:38:38;98974.31;;;22.09;100.00
7966;BME280;4028;43.272;26.932;2022-09-02T04:41:09;98982.41;;;22.09;100.00
7966;BME280;4028;43.272;26.932;2022-09-02T04:43:37;98962.47;;;21.92;100.00
7966;BME280;4028;43.272;26.932;2022-09-02T04:46:04;98980.38;;;22.04;100.00
7966;BME280;4028;43.272;26.932;2022-09-02T04:48:31;98980.16;;;22.06;100.00
7966;BME280;4028;43.272;26.932;2022-09-02T04:50:57;98975.44;;;22.01;100.00
7966;BME280;4028;43.272;26.932;2022-09-02T04:53:24;98977.31;;;22.01;100.00
7966;BME280;4028;43.272;26.932;2022-09-02T04:55:49;98989.88;;;22.07;100.00
7966;BME280;4028;43.272;26.932;2022-09-02T04:58:15;98989.50;;;22.03;100.00
7966;BME280;4028;43.272;26.932;2022-09-02T05:00:41;98989.88;;;22.07;100.00
7966;BME280;4028;43.272;26.932;2022-09-02T05:03:07;98989.78;;;21.95;100.00
7966;BME280;4028;43.272;26.932;2022-09-02T05:05:33;98992.97;;;22.11;100.00
7966;BME280;4028;43.272;26.932;2022-09-02T05:07:59;98987.78;;;22.09;100.00
7966;BME280;4028;43.272;26.932;2022-09-02T05:10:26;98986.50;;;22.18;100.00
7966;BME280;4028;43.272;26.932;2022-09-02T05:12:53;98991.88;;;22.18;100.00
7966;BME280;4028;43.272;26.932;2022-09-02T05:15:19;98978.25;;;22.13;100.00
7966;BME280;4028;43.272;26.932;2022-09-02T05:17:45;98984.94;;;22.29;100.00
7966;BME280;4028;43.272;26.932;2022-09-02T05:20:11;98983.66;;;22.31;100.00
7966;BME280;4028;43.272;26.932;2022-09-02T05:22:37;98996.59;;;22.23;100.00
7966;BME280;4028;43.272;26.932;2022-09-02T05:25:04;98978.28;;;22.06;100.00
7966;BME280;4028;43.272;26.932;2022-09-02T05:27:32;98997.50;;;22.35;100.00
7966;BME280;4028;43.272;26.932;2022-09-02T05:29:57;98987.69;;;22.41;100.00
7966;BME280;4028;43.272;26.932;2022-09-02T05:32:25;98992.13;;;22.53;100.00
7966;BME280;4028;43.272;26.932;2022-09-02T05:34:52;98997.00;;;22.63;100.00
7966;BME280;4028;43.272;26.932;2022-09-02T05:37:18;98975.88;;;22.60;100.00
7966;BME280;4028;43.272;26.932;2022-09-02T05:39:44;98968.75;;;22.66;100.00
7966;BME280;4028;43.272;26.932;2022-09-02T05:42:10;98971.44;;;22.84;100.00
7966;BME280;4028;43.272;26.932;2022-09-02T05:44:36;98983.34;;;22.95;100.00
7966;BME280;4028;43.272;26.932;2022-09-02T05:47:02;98978.00;;;23.06;100.00
7966;BME280;4028;43.272;26.932;2022-09-02T05:49:28;98982.53;;;23.24;100.00
7966;BME280;4028;43.272;26.932;2022-09-02T05:51:57;98978.94;;;23.42;100.00
7966;BME280;4028;43.272;26.932;2022-09-02T05:54:30;98989.13;;;23.70;100.00
7966;BME280;4028;43.272;26.932;2022-09-02T05:56:59;98988.78;;;24.13;100.00
7966;BME280;4028;43.272;26.932;2022-09-02T05:59:27;98988.56;;;24.62;100.00
7966;BME280;4028;43.272;26.932;2022-09-02T06:01:54;98989.84;;;25.00;100.00
7966;BME280;4028;43.272;26.932;2022-09-02T06:04:21;98981.88;;;25.22;100.00
7966;BME280;4028;43.272;26.932;2022-09-02T06:06:47;98993.44;;;25.17;100.00
7966;BME280;4028;43.272;26.932;2022-09-02T06:09:18;98988.00;;;25.17;100.00
7966;BME280;4028;43.272;26.932;2022-09-02T06:11:44;98974.28;;;25.52;100.00
7966;BME280;4028;43.272;26.932;2022-09-02T06:14:15;98978.56;;;26.15;100.00
7966;BME280;4028;43.272;26.932;2022-09-02T06:16:42;98988.16;;;27.06;100.00
7966;BME280;4028;43.272;26.932;2022-09-02T06:19:08;98958.66;;;27.73;88.33
7966;BME280;4028;43.272;26.932;2022-09-02T06:21:35;98975.81;;;27.47;81.39
7966;BME280;4028;43.272;26.932;2022-09-02T06:24:04;98979.47;;;27.90;81.24
7966;BME280;4028;43.272;26.932;2022-09-02T06:26:30;98978.19;;;28.45;72.70
7966;BME280;4028;43.272;26.932;2022-09-02T06:28:55;98928.28;;;28.29;69.29
7966;BME280;4028;43.272;26.932;2022-09-02T06:31:22;98987.00;;;28.62;67.57
7966;BME280;4028;43.272;26.932;2022-09-02T06:33:51;98990.25;;;28.59;70.29
7966;BME280;4028;43.272;26.932;2022-09-02T06:36:17;98966.00;;;28.53;72.83
7966;BME280;4028;43.272;26.932;2022-09-02T06:38:48;98990.44;;;29.00;73.32
7966;BME280;4028;43.272;26.932;2022-09-02T06:41:18;98994.06;;;29.51;66.87
7966;BME280;4028;43.272;26.932;2022-09-02T06:43:47;98996.28;;;29.85;64.00
7966;BME280;4028;43.272;26.932;2022-09-02T06:46:15;98997.28;;;30.50;62.00
7966;BME280;4028;43.272;26.932;2022-09-02T06:48:41;99000.94;;;31.00;59.33
7966;BME280;4028;43.272;26.932;2022-09-02T06:51:07;99003.34;;;31.12;58.56
7966;BME280;4028;43.272;26.932;2022-09-02T06:53:32;99003.31;;;30.42;57.31
7966;BME280;4028;43.272;26.932;2022-09-02T06:55:58;99011.28;;;29.83;61.09
7966;BME280;4028;43.272;26.932;2022-09-02T06:58:23;99001.69;;;29.39;65.21
7966;BME280;4028;43.272;26.932;2022-09-02T07:00:49;98991.81;;;29.03;66.97
7966;BME280;4028;43.272;26.932;2022-09-02T07:03:14;98999.44;;;29.06;69.85
7966;BME280;4028;43.272;26.932;2022-09-02T07:06:08;98997.94;;;29.61;65.68
7966;BME280;4028;43.272;26.932;2022-09-02T07:08:39;98999.56;;;29.92;63.41
7966;BME280;4028;43.272;26.932;2022-09-02T07:11:15;99007.91;;;30.62;62.00
7966;BME280;4028;43.272;26.932;2022-09-02T07:13:50;99004.16;;;31.13;58.70
7966;BME280;4028;43.272;26.932;2022-09-02T07:16:16;99000.31;;;31.14;56.60
7966;BME280;4028;43.272;26.932;2022-09-02T07:18:41;99004.06;;;31.33;57.17
7966;BME280;4028;43.272;26.932;2022-09-02T07:21:11;99008.31;;;31.49;56.27
7966;BME280;4028;43.272;26.932;2022-09-02T07:23:37;99006.47;;;31.79;56.17
7966;BME280;4028;43.272;26.932;2022-09-02T07:26:03;98987.44;;;31.19;55.16
7966;BME280;4028;43.272;26.932;2022-09-02T07:28:29;99007.69;;;30.43;57.36
7966;BME280;4028;43.272;26.932;2022-09-02T07:30:54;99002.28;;;29.77;63.42
7966;BME280;4028;43.272;26.932;2022-09-02T07:33:21;98987.50;;;29.42;62.95
7966;BME280;4028;43.272;26.932;2022-09-02T07:35:50;98995.59;;;29.01;68.69
7966;BME280;4028;43.272;26.932;2022-09-02T07:38:17;98977.34;;;28.97;71.59
7966;BME280;4028;43.272;26.932;2022-09-02T07:40:44;99001.94;;;29.38;70.72
7966;BME280;4028;43.272;26.932;2022-09-02T07:43:11;98976.56;;;29.17;66.29
7966;BME280;4028;43.272;26.932;2022-09-02T07:45:37;98995.72;;;29.98;62.10
7966;BME280;4028;43.272;26.932;2022-09-02T07:48:04;99006.94;;;30.12;61.54
7966;BME280;4028;43.272;26.932;2022-09-02T07:50:34;98996.03;;;29.66;61.99
7966;BME280;4028;43.272;26.932;2022-09-02T07:53:00;98987.66;;;28.90;67.81
7966;BME280;4028;43.272;26.932;2022-09-02T07:55:27;99000.72;;;28.35;74.29
7966;BME280;4028;43.272;26.932;2022-09-02T07:57:55;98997.41;;;28.28;76.99
7966;BME280;4028;43.272;26.932;2022-09-02T08:00:21;98985.34;;;29.34;72.72
7966;BME280;4028;43.272;26.932;2022-09-02T08:02:47;98985.31;;;30.46;62.98
7966;BME280;4028;43.272;26.932;2022-09-02T08:05:14;98987.91;;;31.71;57.53
7966;BME280;4028;43.272;26.932;2022-09-02T08:07:40;98970.56;;;31.51;54.95
7966;BME280;4028;43.272;26.932;2022-09-02T08:10:07;98984.28;;;32.15;56.75
7966;BME280;4028;43.272;26.932;2022-09-02T08:12:35;98985.94;;;32.40;52.69
7966;BME280;4028;43.272;26.932;2022-09-02T08:15:01;98958.94;;;31.36;52.89
7966;BME280;4028;43.272;26.932;2022-09-02T08:17:27;98992.94;;;30.44;55.18
7966;BME280;4028;43.272;26.932;2022-09-02T08:19:52;98969.47;;;31.08;56.51
7966;BME280;4028;43.272;26.932;2022-09-02T08:22:18;98974.84;;;31.63;54.84
7966;BME280;4028;43.272;26.932;2022-09-02T08:24:43;98973.50;;;31.21;54.12
7966;BME280;4028;43.272;26.932;2022-09-02T08:27:09;98978.97;;;30.71;57.23
7966;BME280;4028;43.272;26.932;2022-09-02T08:29:34;98978.81;;;30.12;59.28
7966;BME280;4028;43.272;26.932;2022-09-02T08:32:00;98979.13;;;29.64;63.82
7966;BME280;4028;43.272;26.932;2022-09-02T08:34:26;98973.06;;;29.26;65.82
7966;BME280;4028;43.272;26.932;2022-09-02T08:36:52;98974.16;;;29.46;65.45
7966;BME280;4028;43.272;26.932;2022-09-02T08:39:17;98969.53;;;29.51;62.37
7966;BME280;4028;43.272;26.932;2022-09-02T08:42:30;98971.41;;;29.25;60.49
7966;BME280;4028;43.272;26.932;2022-09-02T08:44:36;98954.50;;;29.08;64.30
7966;BME280;4028;43.272;26.932;2022-09-02T08:47:04;98955.81;;;28.95;61.90
7966;BME280;4028;43.272;26.932;2022-09-02T08:49:35;98959.66;;;28.99;65.63
7966;BME280;4028;43.272;26.932;2022-09-02T08:52:04;98954.50;;;29.08;61.44
7966;BME280;4028;43.272;26.932;2022-09-02T08:56:58;98925.41;;;30.75;58.23
7966;BME280;4028;43.272;26.932;2022-09-02T08:59:25;98949.66;;;30.87;52.88
7966;BME280;4028;43.272;26.932;2022-09-02T09:05:04;98954.84;;;31.67;51.46
7966;BME280;4028;43.272;26.932;2022-09-02T09:13:33;98949.31;;;31.43;50.24
7966;BME280;4028;43.272;26.932;2022-09-02T09:18:37;98939.88;;;30.76;53.23
7966;BME280;4028;43.272;26.932;2022-09-02T09:21:03;98938.97;;;30.26;52.90
7966;BME280;4028;43.272;26.932;2022-09-02T09:23:33;98929.09;;;30.35;56.03
7966;BME280;4028;43.272;26.932;2022-09-02T09:26:11;98936.50;;;30.94;50.58
7966;BME280;4028;43.272;26.932;2022-09-02T09:28:39;98928.34;;;31.34;50.70
7966;BME280;4028;43.272;26.932;2022-09-02T09:31:25;98916.91;;;31.21;51.66
7966;BME280;4028;43.272;26.932;2022-09-02T09:34:03;98917.56;;;30.53;51.83
7966;BME280;4028;43.272;26.932;2022-09-02T09:36:44;98916.38;;;29.95;53.39
7966;BME280;4028;43.272;26.932;2022-09-02T09:41:42;98903.84;;;29.43;58.54
7966;BME280;4028;43.272;26.932;2022-09-02T09:44:08;98903.25;;;30.02;60.42
7966;BME280;4028;43.272;26.932;2022-09-02T09:46:33;98888.84;;;30.71;55.08
7966;BME280;4028;43.272;26.932;2022-09-02T09:48:59;98888.00;;;30.71;52.42
7966;BME280;4028;43.272;26.932;2022-09-02T09:51:25;98886.25;;;30.90;53.01
7966;BME280;4028;43.272;26.932;2022-09-02T09:53:52;98875.50;;;31.04;49.32
7966;BME280;4028;43.272;26.932;2022-09-02T09:56:37;98878.03;;;30.95;49.37
7966;BME280;4028;43.272;26.932;2022-09-02T09:59:05;98889.81;;;31.30;48.44
7966;BME280;4028;43.272;26.932;2022-09-02T10:01:32;98882.81;;;31.14;48.83
7966;BME280;4028;43.272;26.932;2022-09-02T10:04:07;98908.25;;;30.60;51.06
7966;BME280;4028;43.272;26.932;2022-09-02T10:06:42;98912.81;;;29.99;57.88
7966;BME280;4028;43.272;26.932;2022-09-02T10:14:19;98910.06;;;27.77;82.83
7966;BME280;4028;43.272;26.932;2022-09-02T10:30:18;98918.47;;;28.23;100.00
7966;BME280;4028;43.272;26.932;2022-09-02T10:35:41;98900.28;;;29.52;100.00
7966;BME280;4028;43.272;26.932;2022-09-02T10:38:25;98899.22;;;29.79;96.05
7966;BME280;4028;43.272;26.932;2022-09-02T10:41:05;98906.84;;;29.87;78.67
7966;BME280;4028;43.272;26.932;2022-09-02T10:43:59;98903.50;;;30.21;80.05
7966;BME280;4028;43.272;26.932;2022-09-02T10:47:18;98898.63;;;29.92;69.52
7966;BME280;4028;43.272;26.932;2022-09-02T10:52:34;98896.50;;;29.08;86.18
7966;BME280;4028;43.272;26.932;2022-09-02T10:58:22;98886.56;;;28.66;95.50
7966;BME280;4028;43.272;26.932;2022-09-02T11:00:53;98875.94;;;28.69;100.00
7966;BME280;4028;43.272;26.932;2022-09-02T11:03:24;98870.22;;;28.66;100.00
7966;BME280;4028;43.272;26.932;2022-09-02T11:05:57;98856.63;;;28.76;100.00
7966;BME280;4028;43.272;26.932;2022-09-02T11:08:48;98847.47;;;29.13;100.00
7966;BME280;4028;43.272;26.932;2022-09-02T11:11:21;98839.50;;;29.72;96.22
7966;BME280;4028;43.272;26.932;2022-09-02T11:16:44;98834.09;;;30.92;78.21
7966;BME280;4028;43.272;26.932;2022-09-02T11:19:21;98829.66;;;30.96;71.13
7966;BME280;4028;43.272;26.932;2022-09-02T11:22:00;98835.66;;;30.53;73.29
7966;BME280;4028;43.272;26.932;2022-09-02T11:34:57;98846.34;;;30.45;77.34
7966;BME280;4028;43.272;26.932;2022-09-02T11:37:32;98849.72;;;30.81;79.26
7966;BME280;4028;43.272;26.932;2022-09-02T11:40:08;98841.19;;;30.93;73.04
7966;BME280;4028;43.272;26.932;2022-09-02T11:45:26;98830.63;;;31.15;67.15
7966;BME280;4028;43.272;26.932;2022-09-02T11:56:02;98802.03;;;30.14;71.56
7966;BME280;4028;43.272;26.932;2022-09-02T11:58:41;98793.84;;;30.09;67.01
7966;BME280;4028;43.272;26.932;2022-09-02T12:01:38;98796.59;;;30.03;69.36
7966;BME280;4028;43.272;26.932;2022-09-02T12:09:52;98784.78;;;29.38;74.60
7966;BME280;4028;43.272;26.932;2022-09-02T12:15:15;98775.56;;;29.09;72.78
7966;BME280;4028;43.272;26.932;2022-09-02T12:23:00;98775.81;;;29.07;65.72
7966;BME280;4028;43.272;26.932;2022-09-02T12:33:41;98770.09;;;29.19;65.00
7966;BME280;4028;43.272;26.932;2022-09-02T12:36:43;98769.53;;;29.07;63.84
7966;BME280;4028;43.272;26.932;2022-09-02T12:41:43;98765.75;;;28.97;63.26
7966;BME280;4028;43.272;26.932;2022-09-02T12:44:20;98765.72;;;28.92;63.88
7966;BME280;4028;43.272;26.932;2022-09-02T12:47:10;98767.34;;;28.88;64.47
7966;BME280;4028;43.272;26.932;2022-09-02T12:50:01;98771.19;;;28.82;63.09
7966;BME280;4028;43.272;26.932;2022-09-02T12:55:18;98771.72;;;28.79;62.58
7966;BME280;4028;43.272;26.932;2022-09-02T12:57:49;98768.69;;;28.81;60.71
7966;BME280;4028;43.272;26.932;2022-09-02T13:01:03;98769.50;;;28.76;59.87
7966;BME280;4028;43.272;26.932;2022-09-02T13:06:30;98783.69;;;28.73;63.59
7966;BME280;4028;43.272;26.932;2022-09-02T13:09:07;98782.06;;;28.72;65.67
7966;BME280;4028;43.272;26.932;2022-09-02T13:12:13;98778.50;;;28.66;68.06
7966;BME280;4028;43.272;26.932;2022-09-02T13:17:59;98786.09;;;28.49;71.87
7966;BME280;4028;43.272;26.932;2022-09-02T13:20:45;98781.44;;;28.34;80.91
7966;BME280;4028;43.272;26.932;2022-09-02T13:31:24;98762.81;;;27.48;93.03
7966;BME280;4028;43.272;26.932;2022-09-02T13:36:34;98743.41;;;27.24;93.98
7966;BME280;4028;43.272;26.932;2022-09-02T13:41:41;98783.66;;;27.37;82.80
7966;BME280;4028;43.272;26.932;2022-09-02T13:44:11;98775.72;;;27.26;83.07
7966;BME280;4028;43.272;26.932;2022-09-02T13:47:11;98785.22;;;27.23;89.89
7966;BME280;4028;43.272;26.932;2022-09-02T13:49:40;98793.44;;;27.33;100.00
7966;BME280;4028;43.272;26.932;2022-09-02T13:52:13;98789.00;;;27.22;100.00
7966;BME280;4028;43.272;26.932;2022-09-02T13:54:44;98774.59;;;26.89;100.00
7966;BME280;4028;43.272;26.932;2022-09-02T13:57:12;98799.44;;;26.76;100.00
7966;BME280;4028;43.272;26.932;2022-09-02T13:59:49;98801.41;;;26.54;100.00
7966;BME280;4028;43.272;26.932;2022-09-02T14:02:35;98805.88;;;26.16;100.00
7966;BME280;4028;43.272;26.932;2022-09-02T14:05:14;98810.91;;;26.07;100.00
7966;BME280;4028;43.272;26.932;2022-09-02T14:07:44;98815.44;;;26.02;100.00
7966;BME280;4028;43.272;26.932;2022-09-02T14:10:14;98820.59;;;26.03;100.00
7966;BME280;4028;43.272;26.932;2022-09-02T14:12:41;98814.81;;;25.95;100.00
7966;BME280;4028;43.272;26.932;2022-09-02T14:15:11;98827.09;;;26.02;100.00
7966;BME280;4028;43.272;26.932;2022-09-02T14:17:37;98834.81;;;26.10;100.00
7966;BME280;4028;43.272;26.932;2022-09-02T14:22:41;98842.50;;;25.97;100.00
7966;BME280;4028;43.272;26.932;2022-09-02T14:25:16;98849.16;;;25.89;100.00
7966;BME280;4028;43.272;26.932;2022-09-02T14:27:53;98853.13;;;25.81;100.00
7966;BME280;4028;43.272;26.932;2022-09-02T14:30:34;98852.44;;;25.91;100.00
7966;BME280;4028;43.272;26.932;2022-09-02T14:36:05;98861.00;;;25.83;100.00
7966;BME280;4028;43.272;26.932;2022-09-02T14:41:32;98856.84;;;25.75;100.00
7966;BME280;4028;43.272;26.932;2022-09-02T14:44:08;98851.50;;;25.80;100.00
7966;BME280;4028;43.272;26.932;2022-09-02T14:46:44;98842.63;;;25.85;100.00
7966;BME280;4028;43.272;26.932;2022-09-02T14:49:25;98840.06;;;25.78;100.00
7966;BME280;4028;43.272;26.932;2022-09-02T14:51:57;98846.88;;;25.64;100.00
7966;BME280;4028;43.272;26.932;2022-09-02T14:54:39;98837.56;;;25.55;100.00
7966;BME280;4028;43.272;26.932;2022-09-02T14:57:29;98836.56;;;25.61;100.00
7966;BME280;4028;43.272;26.932;2022-09-02T15:00:12;98833.94;;;25.49;100.00
7966;BME280;4028;43.272;26.932;2022-09-02T15:02:44;98820.41;;;25.32;100.00
7966;BME280;4028;43.272;26.932;2022-09-02T15:05:13;98824.16;;;25.48;100.00
7966;BME280;4028;43.272;26.932;2022-09-02T15:07:39;98819.00;;;25.47;100.00
7966;BME280;4028;43.272;26.932;2022-09-02T15:10:05;98815.72;;;25.45;100.00
7966;BME280;4028;43.272;26.932;2022-09-02T15:12:37;98825.91;;;25.37;100.00
7966;BME280;4028;43.272;26.932;2022-09-02T15:15:05;98831.00;;;25.34;100.00
7966;BME280;4028;43.272;26.932;2022-09-02T15:17:30;98828.75;;;25.48;100.00
7966;BME280;4028;43.272;26.932;2022-09-02T15:19:56;98829.94;;;25.35;100.00
7966;BME280;4028;43.272;26.932;2022-09-02T15:22:21;98820.09;;;25.29;100.00